TimeCST,TemperatureF,Dew PointF,Humidity,Sea Level PressureIn,VisibilityMPH,Wind Direction,Wind SpeedMPH,Gust SpeedMPH,PrecipitationIn,Events,Conditions,WindDirDegrees,DateUTC
12:15 AM,-7.2,-13.0,76,30.22,10.0,Calm,Calm,-,N/A,,Mostly Cloudy,0,2014-01-08 06:15:00
12:35 AM,-7.8,-13.2,77,30.23,10.0,West,5.8,-,N/A,,Scattered Clouds,280,2014-01-08 06:35:00
12:55 AM,-8.9,-13.9,79,30.23,10.0,Calm,Calm,-,N/A,,Clear,0,2014-01-08 06:55:00
1:15 AM,-9.2,-14.1,79,30.24,10.0,Calm,Calm,-,N/A,,Clear,0,2014-01-08 07:15:00
1:35 AM,-9.2,-13.5,81,30.25,10.0,West,3.5,-,N/A,,Clear,280,2014-01-08 07:35:00
1:55 AM,-11.0,-15.3,81,30.25,10.0,Calm,Calm,-,N/A,,Clear,0,2014-01-08 07:55:00
2:15 AM,-11.6,-16.1,80,30.26,7.0,Calm,Calm,-,N/A,,Clear,0,2014-01-08 08:15:00
2:35 AM,-11.4,-15.3,83,30.26,10.0,Calm,Calm,-,N/A,,Clear,0,2014-01-08 08:35:00
2:55 AM,-14.3,-18.8,80,30.27,10.0,Calm,Calm,-,N/A,,Clear,0,2014-01-08 08:55:00
3:15 AM,-15.0,-18.9,82,30.27,7.0,Calm,Calm,-,N/A,,Clear,0,2014-01-08 09:15:00
3:35 AM,-15.9,-20.0,82,30.27,10.0,WNW,3.5,-,N/A,,Clear,290,2014-01-08 09:35:00
3:55 AM,-17.1,-21.8,79,30.28,10.0,WNW,3.5,-,N/A,,Scattered Clouds,300,2014-01-08 09:55:00
4:15 AM,-15.9,-20.6,79,30.29,10.0,West,3.5,-,N/A,,Mostly Cloudy,270,2014-01-08 10:15:00
4:35 AM,-16.1,-20.7,79,30.29,10.0,WNW,3.5,-,N/A,,Overcast,290,2014-01-08 10:35:00
4:55 AM,-16.2,-21.5,77,30.29,10.0,NW,4.6,-,N/A,,Scattered Clouds,310,2014-01-08 10:55:00
5:15 AM,-16.4,-21.6,77,30.30,10.0,Calm,Calm,-,N/A,,Clear,0,2014-01-08 11:15:00
5:35 AM,-17.3,-22.4,78,30.30,10.0,Calm,Calm,-,N/A,,Clear,0,2014-01-08 11:35:00
5:55 AM,-16.4,-21.5,78,30.30,10.0,Calm,Calm,-,N/A,,Clear,0,2014-01-08 11:55:00
6:15 AM,-16.1,-21.1,78,30.31,10.0,NNW,3.5,-,N/A,,Clear,340,2014-01-08 12:15:00
6:35 AM,-15.2,-20.4,77,30.31,10.0,Calm,Calm,-,N/A,,Clear,0,2014-01-08 12:35:00
6:55 AM,-16.1,-22.0,74,30.32,10.0,Calm,Calm,-,N/A,,Clear,0,2014-01-08 12:55:00
7:15 AM,-15.7,-20.7,78,30.33,10.0,Calm,Calm,-,N/A,,Clear,0,2014-01-08 13:15:00
7:35 AM,-16.1,-21.3,77,30.34,10.0,West,3.5,-,N/A,,Clear,280,2014-01-08 13:35:00
7:55 AM,-15.2,-20.4,77,30.35,10.0,NW,4.6,-,N/A,,Clear,310,2014-01-08 13:55:00
8:15 AM,-17.0,-22.2,77,30.37,10.0,Calm,Calm,-,N/A,,Clear,0,2014-01-08 14:15:00
8:35 AM,-15.0,-20.4,77,30.38,10.0,Calm,Calm,-,N/A,,Clear,0,2014-01-08 14:35:00
8:55 AM,-14.1,-19.1,78,30.40,10.0,Calm,Calm,-,N/A,,Clear,0,2014-01-08 14:55:00
9:15 AM,-14.1,-18.9,79,30.41,10.0,Calm,Calm,-,N/A,,Clear,0,2014-01-08 15:15:00
9:35 AM,-12.1,-17.3,78,30.41,10.0,Calm,Calm,-,N/A,,Clear,0,2014-01-08 15:35:00
9:55 AM,-11.2,-16.4,78,30.42,10.0,Calm,Calm,-,N/A,,Clear,0,2014-01-08 15:55:00
10:15 AM,-10.3,-15.9,76,30.42,10.0,Calm,Calm,-,N/A,,Clear,0,2014-01-08 16:15:00
10:35 AM,-10.1,-15.9,76,30.43,10.0,Calm,Calm,-,N/A,,Clear,0,2014-01-08 16:35:00
10:55 AM,-9.4,-15.7,74,30.43,10.0,Calm,Calm,-,N/A,,Clear,0,2014-01-08 16:55:00
11:15 AM,-8.3,-14.8,73,30.43,10.0,Calm,Calm,-,N/A,,Clear,0,2014-01-08 17:15:00
11:55 AM,-6.7,-15.5,66,30.42,10.0,Calm,Calm,-,N/A,,Clear,0,2014-01-08 17:55:00
12:15 PM,-6.9,-15.7,66,30.42,10.0,Calm,Calm,-,N/A,,Clear,0,2014-01-08 18:15:00
12:35 PM,-6.2,-15.3,64,30.42,10.0,Calm,Calm,-,N/A,,Clear,0,2014-01-08 18:35:00
12:55 PM,-4.5,-14.3,63,30.42,10.0,Calm,Calm,-,N/A,,Clear,0,2014-01-08 18:55:00
1:15 PM,-2.7,-13.5,60,30.41,10.0,Calm,Calm,-,N/A,,Clear,0,2014-01-08 19:15:00
1:35 PM,-2.2,-13.0,60,30.42,10.0,North,3.5,-,N/A,,Clear,350,2014-01-08 19:35:00
1:55 PM,-2.2,-13.2,60,30.42,10.0,Calm,Calm,-,N/A,,Clear,0,2014-01-08 19:55:00
2:15 PM,-2.2,-13.0,60,30.42,10.0,Calm,Calm,-,N/A,,Clear,0,2014-01-08 20:15:00
2:35 PM,-2.0,-12.3,62,30.43,10.0,Calm,Calm,-,N/A,,Clear,0,2014-01-08 20:35:00
2:55 PM,-2.0,-12.5,61,30.43,10.0,North,3.5,-,N/A,,Clear,10,2014-01-08 20:55:00
3:15 PM,-2.2,-12.5,62,30.43,10.0,Calm,Calm,-,N/A,,Clear,0,2014-01-08 21:15:00
3:35 PM,-1.3,-12.3,60,30.43,10.0,Calm,Calm,-,N/A,,Clear,0,2014-01-08 21:35:00
3:55 PM,-2.6,-13.0,61,30.43,10.0,Calm,Calm,-,N/A,,Clear,0,2014-01-08 21:55:00
4:15 PM,-4.5,-14.4,62,30.43,10.0,Calm,Calm,-,N/A,,Clear,0,2014-01-08 22:15:00
4:35 PM,-6.7,-15.2,67,30.43,10.0,Calm,Calm,-,N/A,,Clear,0,2014-01-08 22:35:00
4:55 PM,-5.6,-14.4,66,30.43,10.0,Calm,Calm,-,N/A,,Clear,0,2014-01-08 22:55:00
5:15 PM,-6.9,-14.4,70,30.44,10.0,Calm,Calm,-,N/A,,Clear,0,2014-01-08 23:15:00
5:35 PM,-7.6,-14.6,71,30.44,10.0,Calm,Calm,-,N/A,,Clear,0,2014-01-08 23:35:00
5:55 PM,-9.8,-15.7,75,30.45,10.0,Calm,Calm,-,N/A,,Clear,0,2014-01-08 23:55:00
6:15 PM,-11.6,-17.1,76,30.45,10.0,Calm,Calm,-,N/A,,Clear,0,2014-01-09 00:15:00
6:35 PM,-14.6,-19.7,78,30.45,10.0,Calm,Calm,-,N/A,,Clear,0,2014-01-09 00:35:00
6:55 PM,-15.5,-20.4,79,30.44,10.0,Calm,Calm,-,N/A,,Clear,0,2014-01-09 00:55:00
7:15 PM,-16.2,-21.3,78,30.45,10.0,Calm,Calm,-,N/A,,Clear,0,2014-01-09 01:15:00
7:35 PM,-17.5,-22.0,80,30.45,10.0,Calm,Calm,-,N/A,,Clear,0,2014-01-09 01:35:00
7:55 PM,-18.6,-23.4,78,30.45,10.0,Calm,Calm,-,N/A,,Clear,0,2014-01-09 01:55:00
8:15 PM,-17.9,-22.5,79,30.45,10.0,Calm,Calm,-,N/A,,Clear,0,2014-01-09 02:15:00
8:35 PM,-17.3,-22.4,78,30.45,10.0,Calm,Calm,-,N/A,,Clear,0,2014-01-09 02:35:00
8:55 PM,-18.0,-23.6,76,30.45,10.0,Calm,Calm,-,N/A,,Clear,0,2014-01-09 02:55:00
9:15 PM,-18.2,-22.9,79,30.45,10.0,Calm,Calm,-,N/A,,Clear,0,2014-01-09 03:15:00
9:35 PM,-20.6,-26.1,75,30.44,10.0,SE,3.5,-,N/A,,Clear,130,2014-01-09 03:35:00
9:55 PM,-22.2,-27.8,75,30.44,10.0,ESE,3.5,-,N/A,,Clear,120,2014-01-09 03:55:00
10:15 PM,-20.0,-25.6,75,30.43,10.0,Calm,Calm,-,N/A,,Clear,0,2014-01-09 04:15:00
10:35 PM,-20.4,-26.0,75,30.43,10.0,Calm,Calm,-,N/A,,Clear,0,2014-01-09 04:35:00
10:55 PM,-19.7,-25.2,75,30.43,10.0,Calm,Calm,-,N/A,,Clear,0,2014-01-09 04:55:00
11:15 PM,-20.4,-26.1,75,30.43,10.0,Calm,Calm,-,N/A,,Clear,0,2014-01-09 05:15:00
11:35 PM,-21.5,-27.6,73,30.42,10.0,Calm,Calm,-,N/A,,Clear,0,2014-01-09 05:35:00
11:55 PM,-22.4,-28.3,74,30.41,10.0,Calm,Calm,-,N/A,,Clear,0,2014-01-09 05:55:00